Time;durP1;ratioP1;P1;durP2;ratioP2;P2;SDS_P1;SDS_P2;PMS_P1;PMS_P2;Temp;Humidity;BMP_temperature;BMP_pressure;BME280_temperature;BME280_humidity;BME280_pressure;Samples;Min_cycle;Max_cycle;Signal;HPM_P1;HPM_P2
2021/01/05 00:00:21;;;;;;;181.67;25.40;;;;;;;;;;5067116;28;20016;-53
2021/01/05 00:02:46;;;;;;;97.47;22.70;;;;;;;;;;5071463;28;20024;-57
2021/01/05 00:05:12;;;;;;;112.37;21.63;;;;;;;;;;5072939;28;20104;-55
2021/01/05 00:07:37;;;;;;;174.30;25.23;;;;;;;;;;5082809;28;20028;-54
2021/01/05 00:10:03;;;;;;;240.67;28.40;;;;;;;;;;5062702;28;20379;-54
2021/01/05 00:12:28;;;;;;;76.60;20.00;;;;;;;;;;5071139;28;20024;-56
2021/01/05 00:14:54;;;;;;;78.03;20.73;;;;;;;;;;5060626;28;20012;-57
2021/01/05 00:17:20;;;;;;;74.57;20.17;;;;;;;;;;5072584;28;20016;-56
2021/01/05 00:19:46;;;;;;;111.40;24.47;;;;;;;;;;5064640;28;20020;-54
2021/01/05 00:22:11;;;;;;;112.33;23.13;;;;;;;;;;5052187;28;20024;-58
2021/01/05 00:24:36;;;;;;;97.30;21.00;;;;;;;;;;5052024;28;20053;-53
2021/01/05 00:27:02;;;;;;;101.30;23.03;;;;;;;;;;5068559;28;20460;-56
2021/01/05 00:29:27;;;;;;;96.63;24.10;;;;;;;;;;5052130;28;20482;-57
2021/01/05 00:32:04;;;;;;;129.70;25.00;;;;;;;;;;5059887;28;20077;-56
2021/01/05 00:34:30;;;;;;;70.63;22.27;;;;;;;;;;5052858;28;20111;-56
2021/01/05 00:36:55;;;;;;;55.43;20.70;;;;;;;;;;5067078;28;20483;-55
2021/01/05 00:39:20;;;;;;;83.50;21.17;;;;;;;;;;5063716;28;20017;-56
2021/01/05 00:41:45;;;;;;;143.00;24.90;;;;;;;;;;5064108;28;20128;-55
2021/01/05 00:44:11;;;;;;;143.90;24.77;;;;;;;;;;5066466;28;20078;-58
2021/01/05 00:46:36;;;;;;;48.47;18.73;;;;;;;;;;5067479;28;20042;-55
2021/01/05 00:49:01;;;;;;;46.17;17.00;;;;;;;;;;5069177;28;20086;-55
2021/01/05 00:51:26;;;;;;;59.70;19.33;;;;;;;;;;5058184;28;20075;-55
2021/01/05 00:53:51;;;;;;;61.80;19.77;;;;;;;;;;5051004;28;20024;-56
2021/01/05 00:56:17;;;;;;;39.43;16.17;;;;;;;;;;5051948;28;20028;-55
2021/01/05 00:58:43;;;;;;;39.20;15.90;;;;;;;;;;5063593;28;20138;-55
2021/01/05 01:01:08;;;;;;;42.90;16.67;;;;;;;;;;5063967;28;20507;-56
2021/01/05 01:03:33;;;;;;;49.73;17.60;;;;;;;;;;5068116;28;20131;-55
2021/01/05 01:05:58;;;;;;;62.90;18.80;;;;;;;;;;5074506;28;20036;-55
2021/01/05 01:08:24;;;;;;;52.00;17.20;;;;;;;;;;5069948;28;20024;-56
2021/01/05 01:10:49;;;;;;;70.30;19.13;;;;;;;;;;5070588;28;20112;-57
2021/01/05 01:13:15;;;;;;;46.87;16.30;;;;;;;;;;5072188;28;20028;-55
2021/01/05 01:15:40;;;;;;;73.60;18.60;;;;;;;;;;5068166;28;20016;-56
2021/01/05 01:18:06;;;;;;;58.17;17.00;;;;;;;;;;5052306;28;20017;-56
2021/01/05 01:20:32;;;;;;;72.97;18.60;;;;;;;;;;5058900;28;20486;-57
2021/01/05 01:22:57;;;;;;;64.33;19.37;;;;;;;;;;5056023;28;20032;-57
2021/01/05 01:25:22;;;;;;;81.73;17.53;;;;;;;;;;5090669;28;20024;-55
2021/01/05 01:27:48;;;;;;;52.07;18.73;;;;;;;;;;5072034;28;20044;-56
2021/01/05 01:30:13;;;;;;;84.73;19.97;;;;;;;;;;5068418;28;20028;-56
2021/01/05 01:32:39;;;;;;;120.27;21.83;;;;;;;;;;5066818;28;20100;-55
2021/01/05 01:35:05;;;;;;;47.13;17.63;;;;;;;;;;5052659;28;20024;-54
2021/01/05 01:37:30;;;;;;;53.70;17.37;;;;;;;;;;5055039;28;20581;-55
2021/01/05 01:39:55;;;;;;;39.47;17.13;;;;;;;;;;5058703;28;20086;-54
2021/01/05 01:42:21;;;;;;;40.00;16.17;;;;;;;;;;5062930;28;20044;-56
2021/01/05 01:44:47;;;;;;;46.57;18.67;;;;;;;;;;5074969;28;20028;-54
2021/01/05 01:47:12;;;;;;;32.37;15.50;;;;;;;;;;5074761;28;20078;-54
2021/01/05 01:49:38;;;;;;;41.03;16.90;;;;;;;;;;5068322;28;20032;-56
2021/01/05 01:52:05;;;;;;;34.00;15.30;;;;;;;;;;5068672;28;20443;-54
2021/01/05 01:54:37;;;;;;;28.07;12.77;;;;;;;;;;5074906;28;20104;-56
2021/01/05 01:57:08;;;;;;;32.33;14.97;;;;;;;;;;5074367;28;20020;-54
2021/01/05 01:59:56;;;;;;;32.33;14.27;;;;;;;;;;5071957;28;20016;-58
2021/01/05 02:02:30;;;;;;;40.23;16.47;;;;;;;;;;5067336;28;20024;-55
2021/01/05 02:05:15;;;;;;;35.07;15.57;;;;;;;;;;5055926;28;20013;-57
2021/01/05 02:07:46;;;;;;;44.90;17.42;;;;;;;;;;5066302;28;20025;-54
2021/01/05 02:10:27;;;;;;;65.93;17.87;;;;;;;;;;5061917;28;20036;-55
2021/01/05 02:12:58;;;;;;;32.23;15.20;;;;;;;;;;5059899;28;20075;-55
2021/01/05 02:15:23;;;;;;;39.90;16.03;;;;;;;;;;5095098;28;20024;-58
2021/01/05 02:17:54;;;;;;;56.43;17.20;;;;;;;;;;5072603;28;20029;-53
2021/01/05 02:20:36;;;;;;;89.67;20.93;;;;;;;;;;5070627;28;20016;-56
2021/01/05 02:23:16;;;;;;;70.00;19.10;;;;;;;;;;5074194;28;20028;-53
2021/01/05 02:25:57;;;;;;;70.53;19.27;;;;;;;;;;5069334;28;20463;-55
2021/01/05 02:28:24;;;;;;;70.17;18.17;;;;;;;;;;5072875;28;20025;-54
2021/01/05 02:31:02;;;;;;;42.53;16.70;;;;;;;;;;5072944;28;20069;-55
2021/01/05 02:33:50;;;;;;;49.50;16.47;;;;;;;;;;5054034;28;20401;-54
2021/01/05 02:36:27;;;;;;;59.43;17.30;;;;;;;;;;5054437;28;20017;-53
2021/01/05 02:39:04;;;;;;;90.33;20.57;;;;;;;;;;5064557;28;20095;-55
2021/01/05 02:42:01;;;;;;;123.23;23.67;;;;;;;;;;5065206;28;20024;-55
2021/01/05 02:44:29;;;;;;;65.53;18.13;;;;;;;;;;5035821;28;20032;-54
2021/01/05 02:46:57;;;;;;;169.87;22.57;;;;;;;;;;5073830;28;20421;-54
2021/01/05 02:49:42;;;;;;;56.37;17.77;;;;;;;;;;5062077;28;20048;-52
2021/01/05 02:52:23;;;;;;;161.10;23.70;;;;;;;;;;5029733;28;20084;-55
2021/01/05 02:54:51;;;;;;;78.83;18.03;;;;;;;;;;5058840;28;20024;-53
2021/01/05 02:57:34;;;;;;;51.10;17.30;;;;;;;;;;5070233;28;20024;-54
2021/01/05 03:00:02;;;;;;;133.90;21.20;;;;;;;;;;5068713;28;20443;-56
2021/01/05 03:02:40;;;;;;;102.80;20.53;;;;;;;;;;5069010;28;20021;-55
2021/01/05 03:05:07;;;;;;;165.47;24.30;;;;;;;;;;5064454;28;20472;-55
2021/01/05 03:07:33;;;;;;;86.00;19.50;;;;;;;;;;5071409;28;20024;-53
2021/01/05 03:10:17;;;;;;;82.70;20.07;;;;;;;;;;5068074;28;20459;-56
2021/01/05 03:13:01;;;;;;;78.33;19.90;;;;;;;;;;5063370;28;20099;-56
2021/01/05 03:15:39;;;;;;;197.53;24.53;;;;;;;;;;5075466;28;20108;-54
2021/01/05 03:18:13;;;;;;;57.93;17.30;;;;;;;;;;5073559;28;20016;-56
2021/01/05 03:20:41;;;;;;;91.60;18.37;;;;;;;;;;5058177;28;20013;-56
2021/01/05 03:23:09;;;;;;;96.10;19.27;;;;;;;;;;5073286;28;20024;-55
2021/01/05 03:25:36;;;;;;;122.97;21.67;;;;;;;;;;5072052;28;20060;-54
2021/01/05 03:28:03;;;;;;;67.70;17.83;;;;;;;;;;5060019;28;20426;-55
2021/01/05 03:30:30;;;;;;;69.40;17.33;;;;;;;;;;5065251;28;20056;-57
2021/01/05 03:32:55;;;;;;;93.80;18.87;;;;;;;;;;5087444;28;20030;-54
2021/01/05 03:35:21;;;;;;;80.27;17.60;;;;;;;;;;5059340;28;20111;-54
2021/01/05 03:37:46;;;;;;;60.53;16.63;;;;;;;;;;5071133;28;20027;-56
2021/01/05 03:40:12;;;;;;;127.90;21.47;;;;;;;;;;5070058;28;20059;-52
2021/01/05 03:42:37;;;;;;;58.20;18.80;;;;;;;;;;5064827;28;20020;-56
2021/01/05 03:45:06;;;;;;;47.10;16.77;;;;;;;;;;5069191;28;20033;-56
2021/01/05 03:47:31;;;;;;;110.23;20.00;;;;;;;;;;5065275;28;20071;-55
2021/01/05 03:49:57;;;;;;;96.10;18.67;;;;;;;;;;5060537;28;20025;-57
2021/01/05 03:52:24;;;;;;;57.60;16.23;;;;;;;;;;5058243;28;20423;-56
2021/01/05 03:54:49;;;;;;;115.33;19.70;;;;;;;;;;5071871;28;20028;-55
2021/01/05 03:57:14;;;;;;;85.27;19.27;;;;;;;;;;5069266;28;20020;-56
2021/01/05 03:59:40;;;;;;;127.47;22.00;;;;;;;;;;5068141;28;20017;-55
2021/01/05 04:02:05;;;;;;;73.57;19.00;;;;;;;;;;5060166;28;20016;-53
2021/01/05 04:04:30;;;;;;;57.37;17.13;;;;;;;;;;5058200;28;20391;-56
2021/01/05 04:06:55;;;;;;;128.03;20.90;;;;;;;;;;5065001;28;20471;-56
2021/01/05 04:09:20;;;;;;;66.90;18.50;;;;;;;;;;5059306;28;20101;-53
2021/01/05 04:11:46;;;;;;;83.53;18.30;;;;;;;;;;5065268;28;20024;-55
2021/01/05 04:14:11;;;;;;;77.77;19.10;;;;;;;;;;5059546;28;20023;-56
2021/01/05 04:16:36;;;;;;;91.47;17.33;;;;;;;;;;5061578;28;20103;-56
2021/01/05 04:19:01;;;;;;;184.07;23.40;;;;;;;;;;5058314;28;20021;-56
2021/01/05 04:21:27;;;;;;;72.93;18.50;;;;;;;;;;5064491;28;20070;-55
2021/01/05 04:23:52;;;;;;;58.47;17.67;;;;;;;;;;5062520;28;20240;-53
2021/01/05 04:26:17;;;;;;;79.53;17.13;;;;;;;;;;5063116;28;20061;-54
2021/01/05 04:28:42;;;;;;;88.50;19.40;;;;;;;;;;5067166;28;20311;-55
2021/01/05 04:31:07;;;;;;;82.33;19.63;;;;;;;;;;5062142;28;20029;-55
2021/01/05 04:33:33;;;;;;;63.20;15.90;;;;;;;;;;5052201;28;20028;-55
2021/01/05 04:35:58;;;;;;;96.20;17.80;;;;;;;;;;5063424;28;20023;-55
2021/01/05 04:38:23;;;;;;;45.43;16.57;;;;;;;;;;5070219;28;20017;-55
2021/01/05 04:40:51;;;;;;;68.87;17.97;;;;;;;;;;5062633;28;20062;-54
2021/01/05 04:43:29;;;;;;;84.90;19.07;;;;;;;;;;5060698;28;20474;-53
2021/01/05 04:46:00;;;;;;;71.87;18.67;;;;;;;;;;5051494;28;20025;-54
2021/01/05 04:48:48;;;;;;;54.40;18.30;;;;;;;;;;5058549;28;20074;-53
2021/01/05 04:51:17;;;;;;;136.23;22.07;;;;;;;;;;5054421;28;20551;-55
2021/01/05 04:53:48;;;;;;;80.10;20.67;;;;;;;;;;5063471;28;20561;-53
2021/01/05 04:56:14;;;;;;;163.90;24.23;;;;;;;;;;5066428;28;20017;-51
2021/01/05 04:58:42;;;;;;;94.43;21.03;;;;;;;;;;5055808;28;20101;-55
2021/01/05 05:01:13;;;;;;;75.33;19.33;;;;;;;;;;5063245;28;20032;-54
2021/01/05 05:03:38;;;;;;;80.97;18.83;;;;;;;;;;5062556;28;20149;-53
2021/01/05 05:06:20;;;;;;;65.33;19.07;;;;;;;;;;5064385;28;20111;-55
2021/01/05 05:09:00;;;;;;;143.13;24.23;;;;;;;;;;5059721;28;20659;-55
2021/01/05 05:11:29;;;;;;;117.13;21.40;;;;;;;;;;5067299;28;20063;-57
2021/01/05 05:13:59;;;;;;;82.13;20.70;;;;;;;;;;5068979;28;20107;-55
2021/01/05 05:16:43;;;;;;;117.67;17.97;;;;;;;;;;5061909;28;20017;-55
2021/01/05 05:19:28;;;;;;;90.60;18.80;;;;;;;;;;5063740;28;20048;-53
2021/01/05 05:22:01;;;;;;;85.47;19.38;;;;;;;;;;5052736;28;20142;-55
2021/01/05 05:24:36;;;;;;;103.53;19.33;;;;;;;;;;5068416;28;20068;-55
2021/01/05 05:27:04;;;;;;;156.93;24.88;;;;;;;;;;5065776;28;20187;-56
2021/01/05 05:29:29;;;;;;;105.17;20.73;;;;;;;;;;5064067;28;20021;-56
2021/01/05 05:31:56;;;;;;;55.83;17.90;;;;;;;;;;5061974;28;20386;-55
2021/01/05 05:34:21;;;;;;;78.13;19.73;;;;;;;;;;5059981;28;20360;-55
2021/01/05 05:36:54;;;;;;;86.97;20.23;;;;;;;;;;5067038;28;20028;-55
2021/01/05 05:39:42;;;;;;;75.97;19.03;;;;;;;;;;5071774;28;20472;-55
2021/01/05 05:42:12;;;;;;;58.23;19.53;;;;;;;;;;5059151;28;20029;-50
2021/01/05 05:44:38;;;;;;;206.07;27.70;;;;;;;;;;5071443;28;20036;-55
2021/01/05 05:47:26;;;;;;;115.57;21.67;;;;;;;;;;5079334;28;20139;-55
2021/01/05 05:50:10;;;;;;;67.73;19.83;;;;;;;;;;5070214;28;20502;-54
2021/01/05 05:52:39;;;;;;;78.50;20.33;;;;;;;;;;5054351;28;20522;-55
2021/01/05 05:55:06;;;;;;;212.83;27.50;;;;;;;;;;5055122;28;20025;-55
2021/01/05 05:57:38;;;;;;;236.33;27.90;;;;;;;;;;5071222;28;20035;-55
2021/01/05 06:00:16;;;;;;;56.50;18.83;;;;;;;;;;5071346;28;20098;-54
2021/01/05 06:02:41;;;;;;;66.90;19.80;;;;;;;;;;5080595;28;20032;-56
2021/01/05 06:05:16;;;;;;;217.53;26.37;;;;;;;;;;5074194;28;20445;-56
2021/01/05 06:07:41;;;;;;;74.10;19.27;;;;;;;;;;5066822;28;20024;-57
2021/01/05 06:10:07;;;;;;;95.23;20.47;;;;;;;;;;5068936;28;20021;-55
2021/01/05 06:12:32;;;;;;;115.00;20.93;;;;;;;;;;5066756;28;20016;-57
2021/01/05 06:14:57;;;;;;;177.47;25.70;;;;;;;;;;5062789;28;20017;-54
2021/01/05 06:17:22;;;;;;;124.27;22.93;;;;;;;;;;5063455;28;20055;-55
2021/01/05 06:19:48;;;;;;;90.60;22.13;;;;;;;;;;5062852;28;20027;-54
2021/01/05 06:22:13;;;;;;;73.57;19.20;;;;;;;;;;5066530;28;20044;-52
2021/01/05 06:24:38;;;;;;;163.10;24.60;;;;;;;;;;5067745;28;20447;-56
2021/01/05 06:27:04;;;;;;;254.03;28.87;;;;;;;;;;5069834;28;20021;-53
2021/01/05 06:29:29;;;;;;;128.93;23.53;;;;;;;;;;5059630;28;20021;-53
2021/01/05 06:31:54;;;;;;;120.90;27.13;;;;;;;;;;5064392;28;20091;-55
2021/01/05 06:34:19;;;;;;;69.33;20.27;;;;;;;;;;5061231;28;20024;-55
2021/01/05 06:36:44;;;;;;;70.30;20.57;;;;;;;;;;5066113;28;20027;-56
2021/01/05 06:39:10;;;;;;;73.63;19.53;;;;;;;;;;5059858;28;20056;-54
2021/01/05 06:41:35;;;;;;;87.60;20.93;;;;;;;;;;5066301;28;20013;-56
2021/01/05 06:44:00;;;;;;;57.20;20.20;;;;;;;;;;5068935;28;20028;-55
2021/01/05 06:46:25;;;;;;;114.73;22.27;;;;;;;;;;5055424;28;20023;-52
2021/01/05 06:48:51;;;;;;;58.83;18.77;;;;;;;;;;5061893;28;20020;-56
2021/01/05 06:51:16;;;;;;;73.77;19.40;;;;;;;;;;5064142;28;20023;-56
2021/01/05 06:53:41;;;;;;;98.20;18.37;;;;;;;;;;5066955;28;20099;-55
2021/01/05 06:56:06;;;;;;;61.47;19.97;;;;;;;;;;5060720;28;20467;-54
2021/01/05 06:58:31;;;;;;;60.93;19.43;;;;;;;;;;5066223;28;20024;-51
2021/01/05 07:00:57;;;;;;;50.73;20.50;;;;;;;;;;5063594;28;20028;-53
2021/01/05 07:03:22;;;;;;;73.20;19.07;;;;;;;;;;5068003;28;20077;-52
2021/01/05 07:05:47;;;;;;;137.57;24.13;;;;;;;;;;5059784;28;20025;-57
2021/01/05 07:08:12;;;;;;;128.13;24.30;;;;;;;;;;5056940;28;20032;-55
2021/01/05 07:10:37;;;;;;;64.33;18.23;;;;;;;;;;5066515;28;20012;-56
2021/01/05 07:13:03;;;;;;;118.00;22.53;;;;;;;;;;5068266;28;20546;-54
2021/01/05 07:15:28;;;;;;;67.07;20.00;;;;;;;;;;5072548;28;20371;-55
2021/01/05 07:17:53;;;;;;;74.23;18.57;;;;;;;;;;5065203;28;20043;-57
2021/01/05 07:20:18;;;;;;;60.63;18.40;;;;;;;;;;5070250;28;20051;-56
2021/01/05 07:22:44;;;;;;;53.43;18.27;;;;;;;;;;5061750;28;20024;-57
2021/01/05 07:25:10;;;;;;;48.53;17.83;;;;;;;;;;5053167;28;20514;-57
2021/01/05 07:27:36;;;;;;;40.20;16.70;;;;;;;;;;5084266;28;20029;-55
2021/01/05 07:30:01;;;;;;;44.87;16.77;;;;;;;;;;5068251;28;20028;-57
2021/01/05 07:32:26;;;;;;;72.40;18.33;;;;;;;;;;5057969;28;20020;-56
2021/01/05 07:34:51;;;;;;;56.40;17.87;;;;;;;;;;5065994;28;20017;-58
2021/01/05 07:37:20;;;;;;;75.03;20.23;;;;;;;;;;5055995;28;20020;-55
2021/01/05 07:39:45;;;;;;;110.60;23.80;;;;;;;;;;5061778;28;20083;-57
2021/01/05 07:42:17;;;;;;;73.77;19.97;;;;;;;;;;5066346;28;20490;-55
2021/01/05 07:44:43;;;;;;;70.73;19.03;;;;;;;;;;5072795;28;20043;-56
2021/01/05 07:47:08;;;;;;;95.60;21.73;;;;;;;;;;5066805;28;20021;-53
2021/01/05 07:49:34;;;;;;;66.57;18.83;;;;;;;;;;5055708;28;20032;-57
2021/01/05 07:51:59;;;;;;;77.37;20.27;;;;;;;;;;5058770;28;20044;-57
2021/01/05 07:54:25;;;;;;;60.67;17.43;;;;;;;;;;5063161;28;20015;-57
2021/01/05 07:56:50;;;;;;;108.83;21.33;;;;;;;;;;5055583;28;20023;-57
2021/01/05 07:59:18;;;;;;;56.27;18.50;;;;;;;;;;5057787;28;20376;-58
2021/01/05 08:01:43;;;;;;;51.07;18.93;;;;;;;;;;5060493;28;20020;-56
2021/01/05 08:04:08;;;;;;;53.27;17.60;;;;;;;;;;5054868;28;20017;-58
2021/01/05 08:06:34;;;;;;;57.23;19.10;;;;;;;;;;5055778;28;20025;-56
2021/01/05 08:08:59;;;;;;;34.03;15.73;;;;;;;;;;5055179;28;20025;-56
2021/01/05 08:11:33;;;;;;;35.97;16.33;;;;;;;;;;5058253;28;20479;-54
2021/01/05 08:13:58;;;;;;;28.20;13.63;;;;;;;;;;5058594;28;20017;-54
2021/01/05 08:16:23;;;;;;;30.70;14.63;;;;;;;;;;5058832;28;20399;-55
2021/01/05 08:18:48;;;;;;;25.90;14.43;;;;;;;;;;5061894;28;20715;-53
2021/01/05 08:21:21;;;;;;;30.80;14.80;;;;;;;;;;5066563;28;20051;-58
2021/01/05 08:23:46;;;;;;;28.63;13.27;;;;;;;;;;5059414;28;20486;-56
2021/01/05 08:26:11;;;;;;;31.10;14.83;;;;;;;;;;5061349;28;20135;-56
2021/01/05 08:28:36;;;;;;;30.10;14.93;;;;;;;;;;5049242;28;20017;-55
2021/01/05 08:31:02;;;;;;;32.33;16.07;;;;;;;;;;5067988;28;20086;-56
2021/01/05 08:33:27;;;;;;;31.27;15.10;;;;;;;;;;5063016;28;20016;-55
2021/01/05 08:35:52;;;;;;;24.90;12.90;;;;;;;;;;5072305;28;20427;-54
2021/01/05 08:38:17;;;;;;;31.60;14.87;;;;;;;;;;5062034;28;20029;-55
2021/01/05 08:40:42;;;;;;;23.63;12.87;;;;;;;;;;5067474;28;20086;-57
2021/01/05 08:43:09;;;;;;;24.17;13.50;;;;;;;;;;5071928;28;20081;-55
2021/01/05 08:45:34;;;;;;;25.30;13.33;;;;;;;;;;5069099;28;20017;-57
2021/01/05 08:48:00;;;;;;;42.10;16.93;;;;;;;;;;5070589;28;20497;-55
2021/01/05 08:50:29;;;;;;;32.77;16.30;;;;;;;;;;5069145;28;20024;-53
2021/01/05 08:52:58;;;;;;;22.53;12.37;;;;;;;;;;5071408;28;20390;-57
2021/01/05 08:55:23;;;;;;;28.10;14.03;;;;;;;;;;5069109;28;20107;-54
2021/01/05 08:57:49;;;;;;;26.37;12.30;;;;;;;;;;5067702;28;20446;-55
2021/01/05 09:00:14;;;;;;;29.03;14.67;;;;;;;;;;5068775;28;20523;-56
2021/01/05 09:02:39;;;;;;;29.30;14.20;;;;;;;;;;5070458;28;20557;-55
2021/01/05 09:05:05;;;;;;;24.90;12.17;;;;;;;;;;5066032;28;20438;-52
2021/01/05 09:07:30;;;;;;;28.70;13.07;;;;;;;;;;5064702;28;20427;-55
2021/01/05 09:09:55;;;;;;;43.90;12.90;;;;;;;;;;5061979;28;20028;-56
2021/01/05 09:12:21;;;;;;;64.03;16.33;;;;;;;;;;5070949;28;20020;-55
2021/01/05 09:14:46;;;;;;;47.50;15.47;;;;;;;;;;5061725;28;20020;-56
2021/01/05 09:17:11;;;;;;;36.80;12.93;;;;;;;;;;5051752;28;20456;-57
2021/01/05 09:19:37;;;;;;;40.37;15.13;;;;;;;;;;5051062;28;20025;-55
2021/01/05 09:22:02;;;;;;;62.83;16.57;;;;;;;;;;5065799;28;20025;-56
2021/01/05 09:24:28;;;;;;;42.63;15.50;;;;;;;;;;5059031;28;20071;-57
2021/01/05 09:26:54;;;;;;;47.37;13.97;;;;;;;;;;5064183;28;20391;-55
2021/01/05 09:29:20;;;;;;;43.10;15.13;;;;;;;;;;5064241;28;20028;-56
2021/01/05 09:31:46;;;;;;;49.93;15.03;;;;;;;;;;5064166;28;20031;-56
2021/01/05 09:34:12;;;;;;;63.13;16.30;;;;;;;;;;5051101;28;20025;-55
2021/01/05 09:36:39;;;;;;;77.20;16.63;;;;;;;;;;5054775;28;20468;-55
2021/01/05 09:39:06;;;;;;;33.37;14.37;;;;;;;;;;5062277;28;20020;-56
2021/01/05 09:41:34;;;;;;;42.73;15.30;;;;;;;;;;5066151;28;20109;-56
2021/01/05 09:43:59;;;;;;;52.83;15.87;;;;;;;;;;5071002;28;20039;-56
2021/01/05 09:46:25;;;;;;;46.97;14.13;;;;;;;;;;5052878;28;20029;-57
2021/01/05 09:48:50;;;;;;;56.83;14.87;;;;;;;;;;5064300;28;20342;-56
2021/01/05 09:51:19;;;;;;;39.97;15.47;;;;;;;;;;5069688;28;20032;-56
2021/01/05 09:53:44;;;;;;;64.37;16.97;;;;;;;;;;5077929;28;20024;-57
2021/01/05 09:56:10;;;;;;;43.20;14.70;;;;;;;;;;5071077;28;20043;-56
2021/01/05 09:58:35;;;;;;;50.17;15.53;;;;;;;;;;5069393;28;20583;-57
2021/01/05 10:01:00;;;;;;;39.80;14.97;;;;;;;;;;5062459;28;20068;-58
2021/01/05 10:03:25;;;;;;;41.83;15.43;;;;;;;;;;5061749;28;20057;-57
2021/01/05 10:05:51;;;;;;;85.40;16.03;;;;;;;;;;5065940;28;20452;-57
2021/01/05 10:08:16;;;;;;;39.93;14.63;;;;;;;;;;5078722;28;20451;-55
2021/01/05 10:10:41;;;;;;;70.10;16.30;;;;;;;;;;5064470;28;20032;-58
2021/01/05 10:13:06;;;;;;;37.67;14.80;;;;;;;;;;5070785;28;20021;-56
2021/01/05 10:15:31;;;;;;;32.17;12.57;;;;;;;;;;5065697;28;20463;-58
2021/01/05 10:17:57;;;;;;;33.80;13.43;;;;;;;;;;5070712;28;20056;-58
2021/01/05 10:20:22;;;;;;;42.27;14.00;;;;;;;;;;5069110;28;20107;-58
2021/01/05 10:22:48;;;;;;;40.33;13.40;;;;;;;;;;5054308;28;20033;-58
2021/01/05 10:25:14;;;;;;;39.07;14.33;;;;;;;;;;5064147;28;20117;-59
2021/01/05 10:27:39;;;;;;;30.67;13.00;;;;;;;;;;5073220;28;20017;-59
2021/01/05 10:30:06;;;;;;;34.57;13.67;;;;;;;;;;5070196;28;20024;-60
2021/01/05 10:32:31;;;;;;;45.73;15.23;;;;;;;;;;5054994;28;20025;-58
2021/01/05 10:34:56;;;;;;;79.23;18.00;;;;;;;;;;5065245;28;20070;-59
2021/01/05 10:37:22;;;;;;;41.13;13.43;;;;;;;;;;5077967;28;20020;-58
2021/01/05 10:39:47;;;;;;;42.10;14.70;;;;;;;;;;5071609;28;20471;-58
2021/01/05 10:42:12;;;;;;;89.53;18.40;;;;;;;;;;5060467;28;20407;-57
2021/01/05 10:44:38;;;;;;;44.37;14.27;;;;;;;;;;5056843;28;20016;-57
2021/01/05 10:47:04;;;;;;;36.07;14.70;;;;;;;;;;5064602;28;20029;-57
2021/01/05 10:49:30;;;;;;;38.87;14.23;;;;;;;;;;5051733;28;20074;-59
2021/01/05 10:51:56;;;;;;;37.93;14.27;;;;;;;;;;5055956;28;20033;-58
2021/01/05 10:54:22;;;;;;;65.37;16.97;;;;;;;;;;5071254;28;20051;-55
2021/01/05 10:56:54;;;;;;;36.37;13.30;;;;;;;;;;5068630;28;20032;-54
2021/01/05 10:59:20;;;;;;;29.93;13.33;;;;;;;;;;5062334;28;20072;-57
2021/01/05 11:01:45;;;;;;;30.70;14.27;;;;;;;;;;5068969;28;20435;-55
2021/01/05 11:04:10;;;;;;;31.23;12.93;;;;;;;;;;5067155;28;20106;-56
2021/01/05 11:06:35;;;;;;;22.87;11.53;;;;;;;;;;5072461;28;20390;-58
2021/01/05 11:09:01;;;;;;;26.77;12.70;;;;;;;;;;5061835;28;20395;-56
2021/01/05 11:11:26;;;;;;;21.13;10.13;;;;;;;;;;5053296;28;20021;-55
2021/01/05 11:13:51;;;;;;;18.30;9.70;;;;;;;;;;5059948;28;20112;-54
2021/01/05 11:16:16;;;;;;;19.00;10.60;;;;;;;;;;5063002;28;20013;-52
2021/01/05 11:18:42;;;;;;;16.07;9.77;;;;;;;;;;5051710;28;20020;-55
2021/01/05 11:21:14;;;;;;;21.27;9.50;;;;;;;;;;5059876;28;20033;-57
2021/01/05 11:23:40;;;;;;;17.27;8.47;;;;;;;;;;5067645;28;20135;-57
2021/01/05 11:26:14;;;;;;;15.63;8.80;;;;;;;;;;5068667;28;20104;-55
2021/01/05 11:28:39;;;;;;;13.63;8.17;;;;;;;;;;5063908;28;20102;-56
2021/01/05 11:31:05;;;;;;;13.40;8.50;;;;;;;;;;5061771;28;20357;-53
2021/01/05 11:33:31;;;;;;;13.60;8.63;;;;;;;;;;5052302;28;20553;-60
2021/01/05 11:35:56;;;;;;;13.20;7.57;;;;;;;;;;5053710;28;20028;-57
2021/01/05 11:38:21;;;;;;;15.97;8.77;;;;;;;;;;5051058;28;20027;-55
2021/01/05 11:40:46;;;;;;;15.57;8.73;;;;;;;;;;5068176;28;20043;-51
2021/01/05 11:43:12;;;;;;;11.37;7.67;;;;;;;;;;5085058;28;20498;-57
2021/01/05 11:45:37;;;;;;;12.40;7.70;;;;;;;;;;5061636;28;20108;-55
2021/01/05 11:48:02;;;;;;;14.43;8.27;;;;;;;;;;5070505;28;20028;-56
2021/01/05 11:50:28;;;;;;;14.37;7.87;;;;;;;;;;5067617;28;20060;-55
2021/01/05 11:52:53;;;;;;;12.83;7.60;;;;;;;;;;5063260;28;20028;-55
2021/01/05 11:55:19;;;;;;;13.97;7.73;;;;;;;;;;5064870;28;20008;-53
2021/01/05 11:57:44;;;;;;;11.70;7.43;;;;;;;;;;5051109;28;20119;-57
2021/01/05 12:00:10;;;;;;;15.67;9.00;;;;;;;;;;5063495;28;20024;-57
2021/01/05 12:02:35;;;;;;;12.87;7.67;;;;;;;;;;5060449;28;20455;-54
2021/01/05 12:05:00;;;;;;;16.13;9.50;;;;;;;;;;5053398;28;20480;-54
2021/01/05 12:07:26;;;;;;;15.80;9.50;;;;;;;;;;5054073;28;20017;-52
2021/01/05 12:09:54;;;;;;;19.57;10.97;;;;;;;;;;5057060;28;20029;-52
2021/01/05 12:12:19;;;;;;;21.17;11.33;;;;;;;;;;5072257;28;20021;-54
2021/01/05 12:14:44;;;;;;;23.33;11.90;;;;;;;;;;5062324;28;20020;-63
2021/01/05 12:17:10;;;;;;;22.23;11.83;;;;;;;;;;5064584;28;20016;-61
2021/01/05 12:19:43;;;;;;;24.13;12.27;;;;;;;;;;5068994;28;20457;-62
2021/01/05 12:22:09;;;;;;;23.43;12.60;;;;;;;;;;5059440;28;20108;-62
2021/01/05 12:24:37;;;;;;;27.10;11.63;;;;;;;;;;5067446;28;20273;-62
2021/01/05 12:27:04;;;;;;;27.60;14.03;;;;;;;;;;5064643;28;20028;-62
2021/01/05 12:29:30;;;;;;;28.83;13.80;;;;;;;;;;5050949;28;20029;-62
2021/01/05 12:31:57;;;;;;;26.07;13.07;;;;;;;;;;5067388;28;20027;-62
2021/01/05 12:34:24;;;;;;;27.27;13.10;;;;;;;;;;5057485;28;20024;-62
2021/01/05 12:36:49;;;;;;;24.57;12.87;;;;;;;;;;5065998;28;20021;-62
2021/01/05 12:39:25;;;;;;;28.80;13.13;;;;;;;;;;5049103;28;20027;-62
2021/01/05 12:41:51;;;;;;;31.80;12.77;;;;;;;;;;5060922;28;20017;-62
2021/01/05 12:44:17;;;;;;;26.70;12.13;;;;;;;;;;5066445;28;20105;-62
2021/01/05 12:46:43;;;;;;;21.60;11.57;;;;;;;;;;5057217;28;20460;-62
2021/01/05 12:49:09;;;;;;;26.13;12.37;;;;;;;;;;5069062;28;20028;-62
2021/01/05 12:51:36;;;;;;;22.27;11.87;;;;;;;;;;5061615;28;20029;-61
2021/01/05 12:54:01;;;;;;;22.97;11.40;;;;;;;;;;5056929;28;20111;-62
2021/01/05 12:56:26;;;;;;;24.43;11.63;;;;;;;;;;5068093;28;20224;-62
2021/01/05 12:58:52;;;;;;;18.80;10.03;;;;;;;;;;5049041;28;20299;-65
2021/01/05 13:01:18;;;;;;;21.10;10.23;;;;;;;;;;5090793;28;20036;-63
2021/01/05 13:03:45;;;;;;;21.27;10.13;;;;;;;;;;5065180;28;20091;-62
2021/01/05 13:06:10;;;;;;;16.13;8.53;;;;;;;;;;5066746;28;20119;-61
2021/01/05 13:08:36;;;;;;;20.33;10.20;;;;;;;;;;5054468;28;20314;-65
2021/01/05 13:11:18;;;;;;;20.17;9.97;;;;;;;;;;5080653;28;20033;-67
2021/01/05 13:13:43;;;;;;;19.37;8.33;;;;;;;;;;5053836;28;20096;-63
2021/01/05 13:16:25;;;;;;;14.83;8.17;;;;;;;;;;5062225;28;20112;-64
2021/01/05 13:18:51;;;;;;;16.43;8.73;;;;;;;;;;5055423;28;20017;-64
2021/01/05 13:21:27;;;;;;;14.60;8.27;;;;;;;;;;5071203;28;20032;-65
2021/01/05 13:23:57;;;;;;;15.20;8.17;;;;;;;;;;5065168;28;20488;-65
2021/01/05 13:26:22;;;;;;;17.43;8.40;;;;;;;;;;5057237;28;20094;-65
2021/01/05 13:28:47;;;;;;;15.20;8.27;;;;;;;;;;5058091;28;20518;-63
2021/01/05 13:31:12;;;;;;;14.17;8.10;;;;;;;;;;5054597;28;20052;-64
2021/01/05 13:33:37;;;;;;;14.07;7.97;;;;;;;;;;5058196;28;20075;-67
2021/01/05 13:36:03;;;;;;;16.23;8.70;;;;;;;;;;5058173;28;20479;-68
2021/01/05 13:38:28;;;;;;;17.50;9.20;;;;;;;;;;5070315;28;20025;-67
2021/01/05 13:40:53;;;;;;;15.37;8.20;;;;;;;;;;5054575;28;20025;-67
2021/01/05 13:43:18;;;;;;;14.37;8.37;;;;;;;;;;5064501;28;20475;-67
2021/01/05 13:45:44;;;;;;;14.63;9.07;;;;;;;;;;5060798;28;20117;-67
2021/01/05 13:48:09;;;;;;;16.30;8.90;;;;;;;;;;5054206;28;20395;-68
2021/01/05 13:50:34;;;;;;;13.53;8.20;;;;;;;;;;5051319;28;20021;-67
2021/01/05 13:52:59;;;;;;;19.30;9.17;;;;;;;;;;5058071;28;20099;-67
2021/01/05 13:55:25;;;;;;;13.50;7.70;;;;;;;;;;5070850;28;20359;-67
2021/01/05 13:57:50;;;;;;;18.33;8.87;;;;;;;;;;5063427;28;20162;-67
2021/01/05 14:00:16;;;;;;;27.77;10.90;;;;;;;;;;5070111;28;20475;-67
2021/01/05 14:02:41;;;;;;;22.90;8.20;;;;;;;;;;5065007;28;20499;-67
2021/01/05 14:05:07;;;;;;;29.00;11.30;;;;;;;;;;5072858;28;20039;-68
2021/01/05 14:07:32;;;;;;;22.23;9.80;;;;;;;;;;5058399;28;20056;-68
2021/01/05 14:09:57;;;;;;;17.37;8.63;;;;;;;;;;5066509;28;20109;-68
2021/01/05 14:12:24;;;;;;;15.97;9.17;;;;;;;;;;5070424;28;20107;-68
2021/01/05 14:14:49;;;;;;;18.53;9.57;;;;;;;;;;5070750;28;20028;-68
2021/01/05 14:17:15;;;;;;;14.60;8.20;;;;;;;;;;5081447;28;20141;-67